Time;durP1;ratioP1;P1;durP2;ratioP2;P2;SDS_P1;SDS_P2;PMS_P1;PMS_P2;Temp;Humidity;BMP_temperature;BMP_pressure;BME280_temperature;BME280_humidity;BME280_pressure;Samples;Min_cycle;Max_cycle;Signal;HPM_P1;HPM_P2
2023/10/05 00:01:27;;;;;;;13.00;3.50;;;12.40;99.90;;;12.23;100.00;101299.66;5041276;28;20047;-88
2023/10/05 00:03:55;;;;;;;15.77;4.50;;;12.40;99.90;;;12.23;100.00;101305.13;5032125;28;20098;-87
2023/10/05 00:06:25;;;;;;;16.02;3.75;;;12.40;99.90;;;12.22;100.00;101306.16;5030513;28;20574;-89
2023/10/05 00:08:56;;;;;;;10.80;3.65;;;12.40;99.90;;;12.13;100.00;101281.97;5028955;28;20549;-88
2023/10/05 00:11:36;;;;;;;8.82;3.22;;;12.40;99.90;;;12.19;100.00;101292.88;5028900;28;20029;-88
2023/10/05 00:14:07;;;;;;;10.27;3.60;;;12.30;99.90;;;12.03;100.00;101266.81;5023899;28;20036;-87
2023/10/05 00:16:36;;;;;;;14.65;3.80;;;12.30;99.90;;;12.12;100.00;101289.31;5031099;28;20128;-89
2023/10/05 00:19:11;;;;;;;12.27;3.55;;;12.30;99.90;;;12.17;100.00;101284.06;5032783;28;20155;-88
2023/10/05 00:21:51;;;;;;;10.23;3.65;;;12.30;99.90;;;12.16;100.00;101279.63;5026632;28;20430;-89
2023/10/05 00:24:41;;;;;;;8.50;3.15;;;12.30;99.90;;;12.08;100.00;101258.00;5030357;28;20022;-89
2023/10/05 00:27:12;;;;;;;13.68;3.70;;;12.30;99.90;;;12.05;100.00;101261.16;5032224;28;20030;-88
2023/10/05 00:29:46;;;;;;;10.95;3.53;;;12.20;99.90;;;11.99;100.00;101272.91;5034419;28;20362;-88
2023/10/05 00:32:15;;;;;;;11.98;3.83;;;12.10;99.90;;;11.94;100.00;101268.91;5023713;28;20034;-87
2023/10/05 00:34:44;;;;;;;10.48;3.50;;;12.10;99.90;;;11.97;100.00;101255.88;5026865;28;20079;-87
2023/10/05 00:37:10;;;;;;;10.27;3.95;;;12.10;99.90;;;12.00;100.00;101269.13;5017479;28;20053;-87
2023/10/05 00:39:37;;;;;;;12.55;3.78;;;12.20;99.90;;;12.03;100.00;101271.47;5022061;28;20165;-87
2023/10/05 00:44:35;;;;;;;10.85;3.80;;;12.20;99.90;;;12.02;100.00;101264.31;5021705;28;20056;-86
2023/10/05 00:47:06;;;;;;;16.70;3.80;;;12.20;99.90;;;12.00;100.00;101263.66;5027679;28;20033;-87
2023/10/05 00:49:45;;;;;;;12.60;3.63;;;12.20;99.90;;;12.06;100.00;101268.31;5030603;28;20034;-86
2023/10/05 00:52:15;;;;;;;11.45;3.50;;;12.20;99.90;;;12.08;100.00;101272.53;5033888;28;20116;-87
2023/10/05 00:54:56;;;;;;;11.35;3.50;;;12.20;99.90;;;12.11;100.00;101273.97;5035977;28;20062;-87
2023/10/05 00:57:24;;;;;;;9.50;3.10;;;12.30;99.90;;;12.15;100.00;101277.13;5038557;28;20037;-89
2023/10/05 01:00:43;;;;;;;11.75;3.85;;;12.30;99.90;;;12.21;100.00;101271.66;5044324;28;20467;-86
2023/10/05 01:03:16;;;;;;;7.97;3.15;;;12.40;99.90;;;12.33;100.00;101280.06;5035559;28;20076;-88
2023/10/05 01:05:35;;;;;;;14.18;3.25;;;12.50;99.90;;;12.40;100.00;101290.16;5020208;28;20037;-89
2023/10/05 01:08:13;;;;;;;11.07;3.58;;;12.60;99.90;;;12.45;100.00;101285.69;5005621;28;20034;-88
2023/10/05 01:10:48;;;;;;;10.43;2.85;;;12.60;99.90;;;12.47;100.00;101286.34;5018495;28;20038;-86
2023/10/05 01:13:34;;;;;;;10.90;3.22;;;12.70;99.90;;;12.52;100.00;101280.22;5028153;28;20041;-89
2023/10/05 01:16:12;;;;;;;12.00;3.10;;;12.70;99.90;;;12.57;100.00;101277.66;5018537;28;20041;-88
2023/10/05 01:18:39;;;;;;;10.95;3.55;;;12.70;99.90;;;12.52;100.00;101272.84;5016227;28;20030;-87
2023/10/05 01:21:07;;;;;;;10.57;3.22;;;12.70;99.90;;;12.55;100.00;101270.75;5021806;28;20048;-87
2023/10/05 01:23:38;;;;;;;9.13;2.73;;;12.70;99.90;;;12.62;100.00;101268.81;5031467;28;20038;-88
2023/10/05 01:26:13;;;;;;;13.20;3.53;;;12.70;99.90;;;12.62;100.00;101280.63;5037411;28;20810;-88
2023/10/05 01:28:44;;;;;;;11.60;3.38;;;12.80;99.90;;;12.60;100.00;101268.19;5016225;28;20038;-88
2023/10/05 01:31:21;;;;;;;10.85;2.80;;;12.80;99.90;;;12.63;100.00;101265.03;5019476;28;20178;-87
2023/10/05 01:33:50;;;;;;;11.38;3.13;;;12.80;99.90;;;12.65;100.00;101266.50;5016416;28;20065;-88
2023/10/05 01:36:17;;;;;;;13.52;3.05;;;12.80;99.90;;;12.63;100.00;101260.41;5038939;28;20037;-86
2023/10/05 01:38:45;;;;;;;9.13;2.63;;;12.90;99.90;;;12.71;100.00;101264.78;5030053;28;20105;-90
2023/10/05 01:41:16;;;;;;;14.57;3.53;;;12.90;99.90;;;12.72;100.00;101251.94;5015558;28;20635;-88
2023/10/05 01:43:43;;;;;;;11.70;3.72;;;12.90;99.90;;;12.70;100.00;101249.41;5020474;28;20110;-88
2023/10/05 01:46:11;;;;;;;9.93;2.97;;;12.90;99.90;;;12.70;100.00;101246.69;5019772;28;20121;-89
2023/10/05 01:48:38;;;;;;;12.75;3.50;;;12.90;99.90;;;12.76;100.00;101256.78;5027125;28;20114;-88
2023/10/05 01:51:10;;;;;;;8.75;3.05;;;12.90;99.90;;;12.73;100.00;101248.16;5023898;28;20033;-88
2023/10/05 01:53:36;;;;;;;14.95;3.28;;;12.90;99.90;;;12.72;100.00;101246.47;5027709;28;20053;-88
2023/10/05 01:56:03;;;;;;;7.05;2.85;;;12.90;99.90;;;12.70;100.00;101245.84;5031598;28;20041;-86
2023/10/05 01:58:34;;;;;;;11.80;3.60;;;12.90;99.90;;;12.76;100.00;101251.31;5024600;28;20096;-87
2023/10/05 02:01:03;;;;;;;9.55;2.95;;;12.90;99.90;;;12.77;100.00;101244.78;5028249;28;20287;-88
2023/10/05 02:03:28;;;;;;;8.48;3.03;;;13.00;99.90;;;12.75;100.00;101243.28;5016291;28;20104;-88
2023/10/05 02:06:05;;;;;;;13.98;3.97;;;13.00;99.90;;;12.74;100.00;101233.41;5029906;28;20033;-87
2023/10/05 02:08:35;;;;;;;12.10;3.13;;;13.00;99.90;;;12.86;100.00;101252.72;5035114;28;20572;-87
2023/10/05 02:11:05;;;;;;;10.82;3.40;;;13.00;99.90;;;12.80;100.00;101233.38;5019064;28;20034;-85
2023/10/05 02:13:32;;;;;;;10.27;3.00;;;13.10;99.90;;;12.84;100.00;101236.50;5023146;28;20489;-86
2023/10/05 02:15:59;;;;;;;14.63;3.17;;;13.10;99.90;;;12.92;100.00;101246.38;5021538;28;20113;-86
2023/10/05 02:18:26;;;;;;;11.02;3.10;;;13.10;99.90;;;12.91;100.00;101231.84;5036088;28;20061;-88
2023/10/05 02:21:08;;;;;;;14.27;3.38;;;13.10;99.90;;;12.89;100.00;101230.38;5025232;28;20034;-89
2023/10/05 02:23:40;;;;;;;12.18;3.40;;;13.00;99.90;;;12.86;100.00;101228.09;5024430;28;20044;-88
2023/10/05 02:26:23;;;;;;;13.55;3.70;;;13.00;99.90;;;12.85;100.00;101227.22;5016881;28;20491;-88
2023/10/05 02:28:49;;;;;;;11.75;3.35;;;13.00;99.90;;;12.93;100.00;101228.88;5030207;28;20025;-86
2023/10/05 02:31:15;;;;;;;14.18;3.72;;;13.10;99.90;;;12.92;100.00;101214.38;5023282;28;20064;-88
2023/10/05 02:33:43;;;;;;;13.50;3.40;;;13.10;99.90;;;12.92;100.00;101216.25;5021202;28;20084;-88
2023/10/05 02:36:30;;;;;;;11.50;3.78;;;13.20;99.90;;;13.02;100.00;101224.84;5017818;28;20041;-87
2023/10/05 02:38:56;;;;;;;12.43;3.70;;;13.20;99.90;;;12.98;100.00;101211.81;5023301;28;20522;-89
2023/10/05 02:41:37;;;;;;;13.23;4.00;;;13.20;99.90;;;13.03;100.00;101209.25;5024359;28;20026;-86
2023/10/05 02:44:27;;;;;;;12.05;3.42;;;13.20;99.90;;;13.00;100.00;101213.28;5028470;28;20034;-89
2023/10/05 02:46:53;;;;;;;;;;;13.30;99.90;;;13.13;100.00;101222.47;5013403;28;20047;-88
2023/10/05 02:49:22;;;;;;;13.27;3.72;;;13.30;99.90;;;13.15;100.00;101225.81;5030017;28;19960;-87
2023/10/05 02:51:55;;;;;;;14.23;4.28;;;13.30;99.90;;;13.17;100.00;101229.19;5021059;28;20095;-87
2023/10/05 02:54:22;;;;;;;13.23;3.58;;;13.30;99.90;;;13.16;100.00;101219.28;5020899;28;20100;-86
2023/10/05 02:56:49;;;;;;;13.82;3.60;;;13.40;99.90;;;13.19;100.00;101224.31;5024300;28;20120;-87
2023/10/05 02:59:15;;;;;;;12.23;4.03;;;13.40;99.90;;;13.19;100.00;101225.19;5019487;28;20445;-89
2023/10/05 03:01:45;;;;;;;14.95;4.20;;;13.40;99.90;;;13.20;100.00;101220.53;5027897;28;20013;-88
2023/10/05 03:06:39;;;;;;;12.38;3.80;;;13.50;99.90;;;13.25;100.00;101212.47;5044484;28;20438;-87
2023/10/05 03:09:09;;;;;;;12.63;3.45;;;13.50;99.90;;;13.26;100.00;101214.19;5050198;28;20045;-88
2023/10/05 03:11:46;;;;;;;11.00;3.72;;;13.50;99.90;;;13.28;100.00;101228.50;5032974;28;20129;-89
2023/10/05 03:14:16;;;;;;;13.90;3.70;;;13.40;99.90;;;13.21;100.00;101201.13;5038208;28;20037;-90
2023/10/05 03:16:43;;;;;;;15.02;3.58;;;13.50;99.90;;;13.33;100.00;101212.22;5030918;28;20085;-89
2023/10/05 03:19:20;;;;;;;11.85;3.83;;;13.50;99.90;;;13.27;100.00;101204.03;5026391;28;20053;-89
2023/10/05 03:21:52;;;;;;;14.50;3.90;;;13.50;99.90;;;13.40;100.00;101212.19;5028794;28;20050;-88
2023/10/05 03:24:19;;;;;;;12.98;3.85;;;13.50;99.90;;;13.36;100.00;101217.25;5026091;28;20097;-87
2023/10/05 03:26:51;;;;;;;14.87;3.43;;;13.50;99.90;;;13.37;100.00;101205.22;5031684;28;20045;-88
2023/10/05 03:29:21;;;;;;;12.80;4.13;;;13.50;99.90;;;13.29;100.00;101200.03;5037405;28;20037;-87
2023/10/05 03:31:58;;;;;;;12.15;3.63;;;13.50;99.90;;;13.31;100.00;101211.59;5027451;28;20112;-90
2023/10/05 03:34:27;;;;;;;13.52;4.55;;;13.50;99.90;;;13.35;100.00;101212.00;5026596;28;20029;-88
2023/10/05 03:36:54;;;;;;;9.23;3.58;;;13.50;99.90;;;13.34;100.00;101208.41;5040166;28;20141;-89
2023/10/05 03:39:23;;;;;;;11.48;3.60;;;13.50;99.90;;;13.32;100.00;101207.81;5021698;28;20041;-88
2023/10/05 03:41:49;;;;;;;13.02;3.60;;;13.50;99.90;;;13.34;100.00;101218.53;5014153;28;20053;-90
2023/10/05 03:44:18;;;;;;;9.45;3.25;;;13.50;99.90;;;13.32;100.00;101205.06;5020220;28;20049;-89
2023/10/05 03:46:47;;;;;;;10.43;3.65;;;13.50;99.90;;;13.37;100.00;101207.13;5035046;28;20034;-90
2023/10/05 03:49:18;;;;;;;13.68;3.90;;;13.50;99.90;;;13.41;100.00;101205.63;5041831;28;20441;-88
2023/10/05 03:51:49;;;;;;;10.05;4.10;;;13.50;99.90;;;13.34;100.00;101193.88;5028364;28;20037;-88
2023/10/05 03:54:18;;;;;;;12.00;3.70;;;13.60;99.90;;;13.38;100.00;101204.16;5008158;28;20133;-89
2023/10/05 03:56:46;;;;;;;13.07;4.15;;;13.50;99.90;;;13.38;100.00;101203.31;5024902;28;20044;-87
2023/10/05 03:59:12;;;;;;;10.43;3.55;;;13.60;99.90;;;13.36;100.00;101200.81;5020812;28;20135;-89
2023/10/05 04:01:38;;;;;;;12.52;3.72;;;13.60;99.90;;;13.44;100.00;101207.97;5032208;28;20029;-89
2023/10/05 04:04:08;;;;;;;10.38;3.30;;;13.50;99.90;;;13.41;100.00;101204.78;5023928;28;20037;-89
2023/10/05 04:06:36;;;;;;;9.07;3.20;;;13.60;99.90;;;13.40;100.00;101200.38;5021607;28;20030;-88
2023/10/05 04:09:03;;;;;;;11.77;3.80;;;13.50;99.90;;;13.29;100.00;101188.22;5033746;28;20109;-89
2023/10/05 04:11:33;;;;;;;12.70;3.30;;;13.50;99.90;;;13.31;100.00;101208.00;5037983;28;20053;-87
2023/10/05 04:14:01;;;;;;;9.73;4.03;;;13.50;99.90;;;13.18;100.00;101184.28;5029951;28;20396;-91
2023/10/05 04:16:33;;;;;;;12.68;3.65;;;13.40;99.90;;;13.21;100.00;101189.31;5025040;28;20129;-88
2023/10/05 04:18:59;;;;;;;10.07;3.38;;;13.40;99.90;;;13.21;100.00;101183.84;5043838;28;20068;-89
2023/10/05 04:21:26;;;;;;;10.90;3.38;;;13.40;99.90;;;13.14;100.00;101174.84;5025255;28;20409;-89
2023/10/05 04:23:58;;;;;;;14.98;3.75;;;13.30;99.90;;;13.11;100.00;101181.59;5027857;28;20037;-89
2023/10/05 04:26:32;;;;;;;16.63;4.07;;;13.30;99.90;;;13.07;100.00;101175.72;5047882;28;20038;-89
2023/10/05 04:29:04;;;;;;;12.90;3.95;;;13.30;99.90;;;13.05;100.00;101175.09;5027849;28;20041;-86
2023/10/05 04:31:30;;;;;;;10.85;3.60;;;13.20;99.90;;;12.97;100.00;101171.78;5031973;28;20038;-89
2023/10/05 04:33:56;;;;;;;13.35;3.70;;;13.20;99.90;;;12.86;100.00;101162.38;5000335;28;20045;-86
2023/10/05 04:36:24;;;;;;;11.50;3.80;;;13.10;99.90;;;12.79;100.00;101155.03;5032423;28;20033;-86
2023/10/05 04:38:54;;;;;;;;;;;13.00;99.90;;;12.71;100.00;101147.06;5034513;28;20093;-84
2023/10/05 04:41:31;;;;;;;9.07;3.60;;;12.90;99.90;;;12.72;100.00;101153.41;5019617;28;19924;-84
2023/10/05 04:43:58;;;;;;;13.35;3.85;;;12.90;99.90;;;12.64;100.00;101146.28;5015759;28;20168;-84
2023/10/05 04:46:24;;;;;;;13.10;4.43;;;12.80;99.90;;;12.62;100.00;101151.13;5018350;28;20045;-84
2023/10/05 04:49:09;;;;;;;12.35;4.20;;;12.80;99.90;;;12.60;100.00;101145.03;5025514;28;20034;-85
2023/10/05 04:51:38;;;;;;;10.05;4.60;;;12.70;99.90;;;12.56;100.00;101146.53;5017624;28;20042;-83
2023/10/05 04:54:11;;;;;;;15.40;4.50;;;12.70;99.90;;;12.51;100.00;101142.56;5025705;28;20512;-82
2023/10/05 04:56:53;;;;;;;10.75;4.90;;;12.70;99.90;;;12.45;100.00;101137.94;5016583;28;20038;-83
2023/10/05 04:59:37;;;;;;;13.45;4.93;;;12.70;99.90;;;12.39;100.00;101132.50;5021753;28;20117;-82
2023/10/05 05:02:20;;;;;;;16.85;5.57;;;12.60;99.90;;;12.35;100.00;101123.88;5023274;28;20187;-89
2023/10/05 05:07:16;;;;;;;13.45;5.70;;;12.50;99.90;;;12.29;100.00;101120.09;5038524;28;20041;-87
2023/10/05 05:09:42;;;;;;;15.45;6.05;;;12.50;99.90;;;12.28;100.00;101112.13;5032046;28;20038;-86
2023/10/05 05:12:16;;;;;;;12.43;5.78;;;12.40;99.90;;;12.26;100.00;101106.88;5046262;28;20037;-85
2023/10/05 05:14:44;;;;;;;13.60;6.45;;;12.40;99.90;;;12.19;100.00;101106.06;5032724;28;20086;-84
2023/10/05 05:17:19;;;;;;;17.10;6.45;;;12.40;99.90;;;12.20;100.00;101105.88;5014643;28;20037;-85
2023/10/05 05:19:46;;;;;;;14.13;6.90;;;12.30;99.90;;;12.21;100.00;101110.28;5015287;28;20034;-84
2023/10/05 05:22:13;;;;;;;15.15;6.90;;;12.40;99.90;;;12.20;100.00;101103.13;5013892;28;20121;-86
2023/10/05 05:24:41;;;;;;;17.73;7.97;;;12.40;99.90;;;12.22;100.00;101094.69;5018302;28;20081;-85
2023/10/05 05:29:45;;;;;;;14.32;7.75;;;12.40;99.90;;;12.19;100.00;101090.47;5023311;28;20105;-86
2023/10/05 05:32:11;;;;;;;16.80;8.35;;;12.40;99.90;;;12.13;100.00;101091.34;5019037;28;20124;-87
2023/10/05 05:34:37;;;;;;;14.48;9.30;;;12.30;99.90;;;12.09;100.00;101098.31;5014135;28;20133;-83
2023/10/05 05:37:06;;;;;;;15.00;9.32;;;12.30;99.90;;;12.07;100.00;101098.53;5032500;28;20164;-86
2023/10/05 05:39:39;;;;;;;15.50;9.80;;;12.30;99.90;;;12.07;100.00;101094.97;5018642;28;20551;-83
2023/10/05 05:42:07;;;;;;;18.60;9.95;;;12.20;99.90;;;12.04;100.00;101089.91;5023092;28;20073;-85
2023/10/05 05:44:36;;;;;;;15.45;9.68;;;12.20;99.90;;;12.04;100.00;101092.66;5019994;28;20509;-85
2023/10/05 05:47:09;;;;;;;17.67;10.10;;;12.20;99.90;;;12.07;100.00;101090.34;5038208;28;20030;-84
2023/10/05 05:49:43;;;;;;;16.45;10.15;;;12.30;99.90;;;12.11;100.00;101082.53;5026446;28;20025;-86
2023/10/05 05:52:08;;;;;;;16.55;9.35;;;12.30;99.90;;;12.12;100.00;101086.13;5019184;28;20079;-85
2023/10/05 05:54:38;;;;;;;17.65;10.05;;;12.30;99.90;;;12.11;100.00;101098.94;5013451;28;20038;-84
2023/10/05 05:57:07;;;;;;;16.75;9.50;;;12.30;99.90;;;12.10;100.00;101099.16;5013916;28;20029;-84
2023/10/05 05:59:41;;;;;;;19.38;9.93;;;12.30;99.90;;;12.11;100.00;101095.38;5012981;28;20045;-85
2023/10/05 06:02:08;;;;;;;18.40;9.48;;;12.30;99.90;;;12.10;100.00;101093.69;5014169;28;20040;-84
2023/10/05 06:04:39;;;;;;;18.83;9.57;;;12.30;99.90;;;12.16;100.00;101109.22;5021757;28;20397;-82
2023/10/05 06:07:13;;;;;;;19.15;10.15;;;12.30;99.90;;;12.15;100.00;101111.13;5013685;28;20038;-83
2023/10/05 06:09:43;;;;;;;15.25;9.95;;;12.40;99.90;;;12.16;100.00;101104.59;5012866;28;20042;-83
2023/10/05 06:12:11;;;;;;;19.85;9.13;;;12.30;99.90;;;12.32;100.00;101121.59;5013554;28;20022;-85
2023/10/05 06:14:43;;;;;;;15.00;8.93;;;12.40;99.90;;;12.30;100.00;101124.53;5012678;28;20056;-84
2023/10/05 06:17:10;;;;;;;16.30;8.45;;;12.50;99.90;;;12.33;100.00;101131.47;5019768;28;20085;-84
2023/10/05 06:19:37;;;;;;;13.73;7.22;;;12.50;99.90;;;12.36;100.00;101133.78;5019592;28;20037;-89
2023/10/05 06:22:06;;;;;;;12.23;6.55;;;12.60;99.90;;;12.46;100.00;101145.06;5022229;28;20425;-88
2023/10/05 06:24:35;;;;;;;11.52;5.38;;;12.60;99.90;;;12.56;100.00;101149.25;5014610;28;20076;-89
2023/10/05 06:27:02;;;;;;;10.38;5.53;;;12.70;99.90;;;12.66;100.00;101168.78;5022735;28;20026;-87
2023/10/05 06:29:28;;;;;;;14.38;5.00;;;12.80;99.90;;;12.73;100.00;101161.41;5018822;28;20033;-84
2023/10/05 06:31:54;;;;;;;9.30;4.45;;;12.90;99.90;;;12.87;100.00;101162.16;5039465;28;20627;-90
2023/10/05 06:34:20;;;;;;;10.00;4.90;;;13.10;99.90;;;13.06;100.00;101182.25;5034326;28;20037;-86
2023/10/05 06:36:45;;;;;;;9.40;4.25;;;13.30;99.90;;;13.17;100.00;101179.88;5037858;28;20045;-88
2023/10/05 06:39:14;;;;;;;13.40;3.95;;;13.30;99.90;;;13.13;100.00;101193.19;5024979;28;20040;-89
2023/10/05 06:41:41;;;;;;;14.82;3.80;;;13.40;99.90;;;13.11;100.00;101176.09;5038088;28;20045;-87
2023/10/05 06:44:07;;;;;;;10.50;3.60;;;13.40;99.90;;;13.21;100.00;101194.81;5023349;28;20476;-90
2023/10/05 06:46:34;;;;;;;9.53;3.20;;;13.40;99.90;;;13.28;100.00;101206.56;5031432;28;20073;-84
2023/10/05 06:49:01;;;;;;;10.20;3.45;;;13.50;99.90;;;13.24;100.00;101206.16;5026933;28;20038;-83
2023/10/05 06:51:28;;;;;;;12.00;2.70;;;13.50;99.90;;;13.35;100.00;101210.09;5010664;28;20037;-84
2023/10/05 06:53:57;;;;;;;9.30;3.13;;;13.60;99.90;;;13.39;100.00;101218.69;5029739;28;20508;-83
2023/10/05 06:56:24;;;;;;;9.55;2.80;;;13.70;99.90;;;13.49;100.00;101216.34;5029330;28;20044;-85
2023/10/05 06:58:50;;;;;;;10.03;3.40;;;13.70;99.90;;;13.51;100.00;101213.38;5013382;28;20073;-86
2023/10/05 07:01:20;;;;;;;7.20;2.95;;;13.80;99.90;;;13.54;100.00;101223.06;5011633;28;20065;-82
2023/10/05 07:03:53;;;;;;;9.82;3.00;;;13.90;99.90;;;13.68;100.00;101221.06;5023157;28;20048;-85
2023/10/05 07:06:22;;;;;;;7.63;3.28;;;13.90;99.90;;;13.83;100.00;101218.81;5025353;28;20034;-85
2023/10/05 07:08:49;;;;;;;7.78;2.88;;;14.00;99.90;;;13.77;100.00;101214.22;5001061;28;20099;-86
2023/10/05 07:11:16;;;;;;;8.30;3.20;;;14.10;99.90;;;13.75;100.00;101230.91;5020283;28;20092;-85
2023/10/05 07:13:42;;;;;;;9.45;3.67;;;14.00;99.90;;;13.75;100.00;101221.84;5013912;28;20046;-87
2023/10/05 07:16:09;;;;;;;10.38;3.67;;;14.00;99.90;;;13.87;100.00;101239.25;5013797;28;20049;-86
2023/10/05 07:18:35;;;;;;;12.07;3.70;;;14.10;99.90;;;13.99;100.00;101233.00;5013059;28;20038;-85
2023/10/05 07:21:04;;;;;;;12.30;4.53;;;14.20;99.90;;;14.15;100.00;101237.06;5032934;28;20041;-86
2023/10/05 07:23:31;;;;;;;10.38;4.80;;;14.30;99.90;;;14.32;100.00;101251.03;5023377;28;20570;-84
2023/10/05 07:25:58;;;;;;;14.85;5.32;;;14.40;99.90;;;14.22;100.00;101237.88;5023883;28;20531;-86
2023/10/05 07:28:25;;;;;;;13.02;5.15;;;14.50;99.90;;;14.37;100.00;101259.47;5043729;28;20041;-87
2023/10/05 07:30:51;;;;;;;11.45;5.70;;;14.60;99.90;;;14.48;100.00;101263.34;5017160;28;20034;-86
2023/10/05 07:33:17;;;;;;;15.57;6.10;;;14.80;99.90;;;14.67;100.00;101272.44;5017974;28;20389;-86
2023/10/05 07:35:43;;;;;;;11.77;5.60;;;14.90;99.90;;;14.76;100.00;101273.00;5015826;28;20041;-86
2023/10/05 07:38:11;;;;;;;11.20;5.60;;;15.10;99.90;;;14.98;100.00;101278.00;5030177;28;20029;-84
2023/10/05 07:40:37;;;;;;;;;;;15.20;99.90;;;15.07;100.00;101262.88;5017784;28;20498;-86
2023/10/05 07:43:06;;;;;;;13.18;5.65;;;15.30;99.90;;;15.15;100.00;101268.03;5033244;28;19931;-86
2023/10/05 07:45:33;;;;;;;11.68;5.80;;;15.40;99.90;;;15.08;100.00;101265.38;5034073;28;20041;-82
2023/10/05 07:47:59;;;;;;;14.35;5.88;;;15.40;99.90;;;15.29;100.00;101263.19;5032249;28;20044;-84
2023/10/05 07:50:26;;;;;;;9.88;5.47;;;15.40;99.90;;;15.33;100.00;101280.91;5017254;28;20052;-83
2023/10/05 07:52:53;;;;;;;13.82;5.90;;;15.50;99.90;;;15.16;100.00;101282.63;5020903;28;20057;-83
2023/10/05 07:55:20;;;;;;;12.40;5.35;;;15.40;99.90;;;15.21;100.00;101277.28;5017437;28;20038;-85
2023/10/05 07:57:45;;;;;;;11.05;5.57;;;15.30;99.90;;;15.20;100.00;101284.66;5023411;28;20497;-84
2023/10/05 08:00:13;;;;;;;11.63;5.60;;;15.30;99.90;;;15.15;100.00;101276.28;5022516;28;20146;-85
2023/10/05 08:02:40;;;;;;;10.50;5.50;;;15.30;99.90;;;15.26;100.00;101291.16;5018399;28;20048;-85
2023/10/05 08:05:12;;;;;;;14.95;6.15;;;15.50;99.90;;;15.26;100.00;101287.59;5020018;28;20088;-84
2023/10/05 08:07:38;;;;;;;11.35;5.88;;;15.50;99.90;;;15.27;100.00;101287.34;5016151;28;20505;-86
2023/10/05 08:10:06;;;;;;;12.23;5.38;;;15.60;99.90;;;15.51;100.00;101299.25;5027471;28;20038;-85
2023/10/05 08:12:32;;;;;;;13.40;5.75;;;15.80;99.90;;;15.45;100.00;101288.38;5021331;28;20445;-84
2023/10/05 08:14:59;;;;;;;11.43;5.55;;;15.80;99.90;;;15.62;100.00;101292.09;5019814;28;20500;-87
2023/10/05 08:17:25;;;;;;;11.98;4.90;;;15.80;99.90;;;15.85;100.00;101312.50;5018718;28;20577;-84
2023/10/05 08:19:52;;;;;;;9.88;4.80;;;16.10;99.90;;;15.89;100.00;101315.66;5024217;28;20037;-86
2023/10/05 08:22:20;;;;;;;10.50;5.00;;;16.20;99.90;;;15.85;100.00;101318.00;5016504;28;20405;-83
2023/10/05 08:24:46;;;;;;;12.13;5.13;;;16.20;99.90;;;15.87;100.00;101328.78;5019636;28;20052;-85
2023/10/05 08:27:14;;;;;;;13.30;4.63;;;16.20;99.90;;;16.08;100.00;101328.25;5034985;28;20037;-84
2023/10/05 08:29:44;;;;;;;15.05;4.53;;;16.40;99.90;;;16.12;100.00;101336.03;5024791;28;20042;-87
2023/10/05 08:32:15;;;;;;;9.40;4.40;;;16.50;99.90;;;16.13;100.00;101337.72;5011816;28;20049;-86
2023/10/05 08:34:44;;;;;;;9.85;4.45;;;16.50;99.90;;;16.16;100.00;101342.75;5022141;28;20092;-86
2023/10/05 08:37:11;;;;;;;11.75;4.60;;;16.50;99.90;;;16.10;100.00;101325.25;5043094;28;20068;-85
2023/10/05 08:39:37;;;;;;;11.15;3.97;;;16.60;99.90;;;16.40;100.00;101349.09;5057121;28;20093;-89
2023/10/05 08:42:07;;;;;;;15.95;4.30;;;16.70;99.90;;;16.60;100.00;101342.38;5023598;28;20482;-85
2023/10/05 08:44:38;;;;;;;12.52;4.32;;;16.90;99.90;;;16.21;100.00;101346.47;5031959;28;20045;-85
2023/10/05 08:47:11;;;;;;;10.07;4.30;;;16.80;99.90;;;16.32;100.00;101341.19;5028710;28;20033;-88
2023/10/05 08:49:37;;;;;;;11.10;3.67;;;16.80;99.90;;;16.27;100.00;101355.66;5016964;28;20034;-84
2023/10/05 08:52:13;;;;;;;9.95;4.03;;;16.80;99.90;;;16.51;100.00;101348.25;5037023;28;20065;-85
2023/10/05 08:54:40;;;;;;;13.60;3.88;;;16.90;99.90;;;16.53;100.00;101368.13;5020418;28;20067;-86
2023/10/05 08:57:10;;;;;;;8.35;3.60;;;17.00;99.90;;;16.59;100.00;101362.75;5022730;28;20369;-86
2023/10/05 08:59:45;;;;;;;13.05;3.92;;;17.00;99.90;;;16.63;100.00;101364.78;5016038;28;20112;-85
2023/10/05 09:02:11;;;;;;;11.52;4.10;;;17.00;99.90;;;16.53;100.00;101364.53;5022248;28;20036;-88
2023/10/05 09:04:43;;;;;;;14.25;3.80;;;17.00;99.90;;;16.49;100.00;101364.19;5015537;28;20580;-84
2023/10/05 09:07:55;;;;;;;10.57;3.78;;;17.00;99.90;;;16.65;100.00;101367.28;5015298;28;20045;-85
2023/10/05 09:10:26;;;;;;;10.48;3.88;;;17.10;99.90;;;17.02;100.00;101372.56;5017662;28;20111;-89
2023/10/05 09:12:58;;;;;;;9.77;3.55;;;17.40;99.90;;;16.78;100.00;101377.22;5012090;28;20057;-85
2023/10/05 09:17:58;;;;;;;13.52;3.60;;;17.10;99.90;;;16.28;100.00;101378.53;5022157;28;20041;-89
2023/10/05 09:20:32;;;;;;;11.88;3.53;;;16.90;99.90;;;16.13;100.00;101370.72;5033064;28;20030;-85
2023/10/05 09:23:00;;;;;;;14.20;3.38;;;16.70;99.90;;;16.28;100.00;101382.13;5031126;28;20065;-87
2023/10/05 09:25:34;;;;;;;;;;;16.80;99.90;;;16.32;100.00;101379.72;5017294;28;20041;-86
2023/10/05 09:28:44;;;;;;;12.68;3.45;;;16.80;99.90;;;16.58;100.00;101383.97;5030531;28;19924;-86
2023/10/05 09:30:59;;;;;;;9.40;3.10;;;17.00;99.90;;;16.43;100.00;101394.59;5016666;28;20108;-85
2023/10/05 09:33:34;;;;;;;7.18;3.00;;;17.00;99.90;;;16.39;100.00;101396.97;5027237;28;20041;-84
2023/10/05 09:36:22;;;;;;;12.05;3.10;;;17.00;99.90;;;16.45;100.00;101387.78;5016292;28;20473;-85
2023/10/05 09:38:51;;;;;;;11.98;3.20;;;16.90;99.90;;;16.50;100.00;101393.41;5022692;28;20037;-83
2023/10/05 09:41:19;;;;;;;12.35;3.45;;;17.00;99.90;;;16.59;100.00;101390.28;5019057;28;20401;-84
2023/10/05 09:44:00;;;;;;;11.00;3.45;;;17.00;99.90;;;16.61;100.00;101393.63;5029779;28;20120;-85
2023/10/05 09:46:28;;;;;;;9.52;3.65;;;17.00;99.90;;;16.33;100.00;101386.91;5017107;28;20069;-86
2023/10/05 09:49:01;;;;;;;9.68;3.00;;;17.10;99.90;;;16.36;100.00;101403.81;5020264;28;20034;-89
2023/10/05 09:51:27;;;;;;;8.98;2.80;;;17.00;99.90;;;16.60;100.00;101406.59;5018832;28;20053;-83
2023/10/05 09:53:56;;;;;;;12.93;3.88;;;17.20;99.90;;;16.65;100.00;101400.34;5021769;28;20080;-86
2023/10/05 09:56:25;;;;;;;13.30;3.63;;;17.20;99.90;;;16.42;100.00;101396.50;5033147;28;20034;-86
2023/10/05 09:58:53;;;;;;;10.57;3.13;;;17.20;99.90;;;16.54;100.00;101391.84;5021330;28;20044;-85
2023/10/05 10:01:21;;;;;;;10.38;2.95;;;17.20;99.90;;;17.14;100.00;101399.25;5019596;28;20059;-86
2023/10/05 10:03:52;;;;;;;9.80;3.13;;;17.50;99.90;;;17.63;100.00;101416.25;5022565;28;20041;-84
2023/10/05 10:06:28;;;;;;;7.68;2.65;;;18.00;99.90;;;18.00;100.00;101394.84;5014934;28;20037;-87
2023/10/05 10:08:57;;;;;;;9.80;2.80;;;;;;;18.94;100.00;101403.56;5020050;28;20729;-87
2023/10/05 10:11:31;;;;;;;9.40;2.35;;;;;;;18.96;100.00;101396.69;5028622;28;20029;-87
2023/10/05 10:14:00;;;;;;;9.52;2.60;;;;;;;18.80;100.00;101406.66;5014920;28;20034;-85
2023/10/05 10:16:31;;;;;;;8.95;2.60;;;18.50;99.90;;;18.71;100.00;101399.09;5025010;28;20117;-86
2023/10/05 10:19:04;;;;;;;8.75;2.88;;;19.30;99.90;;;18.64;100.00;101400.06;5021042;28;20045;-88
2023/10/05 10:21:46;;;;;;;13.38;3.25;;;19.30;99.90;;;18.43;100.00;101398.94;5015660;28;20393;-85
2023/10/05 10:24:17;;;;;;;10.77;2.78;;;19.10;99.90;;;17.99;100.00;101418.88;5016994;28;20116;-86
2023/10/05 10:26:53;;;;;;;10.38;3.30;;;18.80;99.90;;;17.53;100.00;101422.41;5008036;28;20153;-87
2023/10/05 10:29:22;;;;;;;9.00;2.72;;;18.40;99.90;;;17.60;100.00;101414.00;5015078;28;20101;-87